createdAt,value
2023-01-12T00:03:06.555Z,83.43
2023-01-12T00:08:08.264Z,83.66
2023-01-12T00:13:16.994Z,83.83
2023-01-12T00:18:20.042Z,83.91
2023-01-12T00:23:22.059Z,84.01
2023-01-12T00:28:23.646Z,84.21
2023-01-12T00:33:25.280Z,84.44
2023-01-12T00:38:27.203Z,84.51
2023-01-12T00:43:47.398Z,84.22
2023-01-12T00:48:49.199Z,84.43
2023-01-12T00:53:50.835Z,84.04
2023-01-12T00:58:52.468Z,84.32
2023-01-12T01:03:54.666Z,84.54
2023-01-12T01:08:56.463Z,84.36
2023-01-12T01:13:59.150Z,84.36
2023-01-12T01:19:03.105Z,84.39
2023-01-12T01:24:09.127Z,84.49
2023-01-12T01:29:11.305Z,84.64
2023-01-12T01:34:13.437Z,84.66
2023-01-12T01:39:15.148Z,84.57
2023-01-12T01:44:31.923Z,84.66
2023-01-12T01:49:52.640Z,84.65
2023-01-12T01:54:59.281Z,84.37
2023-01-12T02:00:03.249Z,84.67
2023-01-12T02:05:07.554Z,84.42
2023-01-12T02:10:10.106Z,84.56
2023-01-12T02:15:30.695Z,84.64
2023-01-12T02:20:55.828Z,84.65
2023-01-12T02:26:27.037Z,84.72
2023-01-12T02:31:50.069Z,84.62
2023-01-12T02:37:10.538Z,84.59
2023-01-12T02:42:41.973Z,84.75
2023-01-12T02:47:49.013Z,84.53
2023-01-12T02:52:56.570Z,84.59
2023-01-12T02:58:00.076Z,84.46
2023-01-12T03:03:02.027Z,84.49
2023-01-12T03:08:05.366Z,84.59
2023-01-12T03:13:15.806Z,84.61
2023-01-12T03:18:39.378Z,84.63
2023-01-12T03:23:49.395Z,84.48
2023-01-12T03:28:56.433Z,84.56
2023-01-12T03:33:58.656Z,84.61
2023-01-12T03:39:11.813Z,84.58
2023-01-12T03:44:24.092Z,84.64
2023-01-12T03:49:33.117Z,84.79
2023-01-12T03:54:37.586Z,84.77
2023-01-12T03:59:40.948Z,84.78
2023-01-12T04:04:42.626Z,84.85
2023-01-12T04:09:44.364Z,84.86
2023-01-12T04:14:48.155Z,85.08
2023-01-12T04:19:50.026Z,85.36
2023-01-12T04:24:51.845Z,85.30
2023-01-12T04:29:53.752Z,85.83
2023-01-12T04:34:55.429Z,85.63
2023-01-12T04:39:57.074Z,85.72
2023-01-12T04:44:58.859Z,85.70
2023-01-12T04:50:00.605Z,85.69
2023-01-12T04:55:03.132Z,85.62
2023-01-12T05:00:06.107Z,85.83
2023-01-12T05:05:09.047Z,85.83
2023-01-12T05:10:23.628Z,85.80
2023-01-12T05:15:25.427Z,85.76
2023-01-12T05:20:27.094Z,85.86
2023-01-12T05:25:29.485Z,85.74
2023-01-12T05:30:32.059Z,86.15
2023-01-12T05:35:33.951Z,85.94
2023-01-12T05:40:35.818Z,86.09
2023-01-12T05:45:37.558Z,86.15
2023-01-12T05:50:39.962Z,86.12
2023-01-12T05:55:44.356Z,85.99
2023-01-12T06:00:46.705Z,86.20
2023-01-12T06:05:55.828Z,86.01
2023-01-12T06:11:03.695Z,86.19
2023-01-12T06:16:09.139Z,86.25
2023-01-12T06:21:11.008Z,86.08
2023-01-12T06:26:12.989Z,86.11
2023-01-12T06:31:15.674Z,86.10
2023-01-12T06:36:17.456Z,86.26
2023-01-12T06:41:37.979Z,86.29
2023-01-12T06:46:39.874Z,86.46
2023-01-12T06:51:41.703Z,86.46
2023-01-12T06:56:43.339Z,86.38
2023-01-12T07:01:45.064Z,86.66
2023-01-12T07:06:48.287Z,86.72
2023-01-12T07:11:49.858Z,86.71
2023-01-12T07:16:51.761Z,86.89
2023-01-12T07:21:53.430Z,86.93
2023-01-12T07:26:58.089Z,86.86
2023-01-12T07:31:59.780Z,86.87
2023-01-12T07:37:01.423Z,86.87
2023-01-12T07:42:21.897Z,86.98
2023-01-12T07:47:23.618Z,86.75
2023-01-12T07:52:25.448Z,86.70
2023-01-12T07:57:27.133Z,86.60
2023-01-12T08:02:28.956Z,86.05
2023-01-12T08:07:32.598Z,84.07
2023-01-12T08:12:35.849Z,82.11
2023-01-12T08:17:44.936Z,81.03
2023-01-12T08:22:51.654Z,78.64
2023-01-12T08:28:00.240Z,76.91
2023-01-12T08:33:02.749Z,75.66
2023-01-12T08:38:04.503Z,75.87
2023-01-12T08:43:06.225Z,76.56
2023-01-12T08:48:07.889Z,77.53
2023-01-12T08:53:10.540Z,77.99
2023-01-12T08:58:12.421Z,78.19
2023-01-12T09:03:14.491Z,77.31
2023-01-12T09:08:16.508Z,75.82
2023-01-12T09:13:18.148Z,74.68
2023-01-12T09:18:20.421Z,74.26
2023-01-12T09:23:22.267Z,74.95
2023-01-12T09:28:24.071Z,74.79
2023-01-12T09:33:26.020Z,75.52
2023-01-12T09:38:27.906Z,75.48
2023-01-12T09:43:48.176Z,75.57
2023-01-12T09:48:49.978Z,75.73
2023-01-12T09:53:51.809Z,75.45
2023-01-12T09:58:59.534Z,75.21
2023-01-12T10:04:02.283Z,74.37
2023-01-12T10:09:05.972Z,74.19
2023-01-12T10:14:28.198Z,73.68
2023-01-12T10:20:03.013Z,73.65
2023-01-12T10:25:27.058Z,72.97
2023-01-12T10:30:28.856Z,72.00
2023-01-12T10:35:30.561Z,71.80
2023-01-12T10:40:34.957Z,72.01
2023-01-12T10:45:36.847Z,71.42
2023-01-12T10:50:38.667Z,70.88
2023-01-12T10:55:43.067Z,70.83
2023-01-12T11:00:52.229Z,70.92
2023-01-12T11:05:53.971Z,70.71
2023-01-12T11:10:55.683Z,70.13
2023-01-12T11:16:09.526Z,69.71
2023-01-12T11:21:15.825Z,69.67
2023-01-12T11:26:22.672Z,69.54
2023-01-12T11:31:42.386Z,68.33
2023-01-12T11:36:50.964Z,68.30
2023-01-12T11:42:17.632Z,68.02
2023-01-12T11:47:31.515Z,68.04
2023-01-12T11:52:34.535Z,67.66
2023-01-12T11:58:00.640Z,67.63
2023-01-12T12:03:12.238Z,67.15
2023-01-12T12:08:42.013Z,66.93
2023-01-12T12:14:31.198Z,66.50
2023-01-12T12:19:50.198Z,66.20
2023-01-12T12:25:50.666Z,66.80
2023-01-12T12:31:24.081Z,66.66
2023-01-12T12:36:34.869Z,66.86
2023-01-12T12:42:11.820Z,66.43
2023-01-12T12:47:41.024Z,66.39
2023-01-12T12:52:47.847Z,65.65
2023-01-12T12:58:01.391Z,65.95
2023-01-12T13:03:03.129Z,66.30
2023-01-12T13:08:05.261Z,66.22
2023-01-12T13:13:24.896Z,65.97
2023-01-12T13:18:42.151Z,66.05
2023-01-12T13:23:51.374Z,66.31
2023-01-12T13:29:29.055Z,66.28
2023-01-12T13:34:36.655Z,66.11
2023-01-12T13:39:45.953Z,66.04
2023-01-12T13:44:48.833Z,66.42
2023-01-12T13:49:53.220Z,66.75
2023-01-12T13:54:55.557Z,66.77
2023-01-12T14:00:09.300Z,67.00
2023-01-12T14:05:29.531Z,67.14
2023-01-12T14:10:49.621Z,67.57
2023-01-12T14:16:19.555Z,67.78
2023-01-12T14:21:33.343Z,67.99
2023-01-12T14:26:35.456Z,67.96
2023-01-12T14:31:40.230Z,68.12
2023-01-12T14:36:44.318Z,68.10
2023-01-12T14:42:11.274Z,68.41
2023-01-12T14:47:24.900Z,68.71
2023-01-12T14:52:33.264Z,68.72
2023-01-12T14:57:36.435Z,69.16
2023-01-12T15:02:41.488Z,69.31
2023-01-12T15:07:55.755Z,69.17
2023-01-12T15:13:12.924Z,69.36
2023-01-12T15:18:34.016Z,69.42
2023-01-12T15:23:55.604Z,69.53
2023-01-12T15:28:57.338Z,69.52
2023-01-12T15:34:00.278Z,69.27
2023-01-12T15:39:01.964Z,69.07
2023-01-12T15:44:03.707Z,69.15
2023-01-12T15:49:05.868Z,69.46
2023-01-12T15:54:11.484Z,69.31
2023-01-12T15:59:13.479Z,69.67
2023-01-12T16:04:41.975Z,69.67
2023-01-12T16:09:47.779Z,69.87
2023-01-12T16:14:50.015Z,69.76
2023-01-12T16:19:51.772Z,69.64
2023-01-12T16:24:55.630Z,69.65
2023-01-12T16:29:57.646Z,69.61
2023-01-12T16:34:59.325Z,69.77
2023-01-12T16:40:01.197Z,69.96
2023-01-12T16:45:03.584Z,69.93
2023-01-12T16:50:06.004Z,69.98
2023-01-12T16:55:07.857Z,69.97
2023-01-12T17:00:10.688Z,69.99
2023-01-12T17:05:12.474Z,70.01
2023-01-12T17:10:17.594Z,70.09
2023-01-12T17:15:19.334Z,70.05
2023-01-12T17:20:21.461Z,70.18
2023-01-12T17:25:23.547Z,70.49
2023-01-12T17:30:25.805Z,70.43
2023-01-12T17:35:27.610Z,70.53
2023-01-12T17:40:29.414Z,70.62
2023-01-12T17:45:31.327Z,70.72
2023-01-12T17:50:33.151Z,70.97
2023-01-12T17:55:47.358Z,71.20
2023-01-12T18:00:49.801Z,71.29
2023-01-12T18:06:02.837Z,71.65
2023-01-12T18:11:08.595Z,71.90
2023-01-12T18:16:12.581Z,72.25
2023-01-12T18:21:18.558Z,72.11
2023-01-12T18:26:25.781Z,72.34
2023-01-12T18:31:31.890Z,72.53
2023-01-12T18:36:36.778Z,72.63
2023-01-12T18:41:57.155Z,72.98
2023-01-12T18:47:19.104Z,73.18
2023-01-12T18:52:40.055Z,73.33
2023-01-12T18:57:41.705Z,73.14
2023-01-12T19:02:44.651Z,73.13
2023-01-12T19:07:58.684Z,73.02
2023-01-12T19:13:18.855Z,72.98
2023-01-12T19:18:20.647Z,72.89
2023-01-12T19:23:41.673Z,72.85
2023-01-12T19:28:43.392Z,73.08
2023-01-12T19:33:45.140Z,72.79
2023-01-12T19:38:50.971Z,73.30
2023-01-12T19:43:52.736Z,73.62
2023-01-12T19:48:54.430Z,73.72
2023-01-12T19:53:56.151Z,73.77
2023-01-12T19:58:58.046Z,73.96
2023-01-12T20:03:59.970Z,74.30
2023-01-12T20:09:03.149Z,74.33
2023-01-12T20:14:05.138Z,74.47
2023-01-12T20:19:07.217Z,74.67
2023-01-12T20:24:09.425Z,74.93
2023-01-12T20:29:11.685Z,75.20
2023-01-12T20:34:13.609Z,75.10
2023-01-12T20:39:16.146Z,75.09
2023-01-12T20:44:20.352Z,74.75
2023-01-12T20:49:22.209Z,74.57
2023-01-12T20:54:23.977Z,74.47
2023-01-12T20:59:25.792Z,74.25
2023-01-12T21:04:27.547Z,74.17
2023-01-12T21:09:29.621Z,74.16
2023-01-12T21:14:32.202Z,74.38
2023-01-12T21:19:34.409Z,74.22
2023-01-12T21:24:36.160Z,74.38
2023-01-12T21:29:37.923Z,74.40
2023-01-12T21:34:39.706Z,74.76
2023-01-12T21:39:41.489Z,74.67
2023-01-12T21:44:43.169Z,74.74
2023-01-12T21:49:44.934Z,74.96
2023-01-12T21:54:46.793Z,75.24
2023-01-12T21:59:48.471Z,75.78
2023-01-12T22:04:50.132Z,76.36
2023-01-12T22:09:52.019Z,76.33
2023-01-12T22:14:57.022Z,76.76
2023-01-12T22:19:59.117Z,76.81
2023-01-12T22:25:00.947Z,77.09
2023-01-12T22:30:05.204Z,77.44
2023-01-12T22:35:07.719Z,77.73
2023-01-12T22:40:11.055Z,77.78
2023-01-12T22:45:14.010Z,77.69
2023-01-12T22:50:15.951Z,77.92
2023-01-12T22:55:17.755Z,78.12
2023-01-12T23:00:21.095Z,78.11
2023-01-12T23:05:22.930Z,78.20
2023-01-12T23:10:25.517Z,78.02
2023-01-12T23:15:27.244Z,77.96
2023-01-12T23:20:29.140Z,77.44
2023-01-12T23:25:32.890Z,77.22
2023-01-12T23:30:34.721Z,77.06
2023-01-12T23:35:40.439Z,77.24
2023-01-12T23:40:42.395Z,77.10
2023-01-12T23:45:44.346Z,76.99
2023-01-12T23:50:46.148Z,76.73
2023-01-12T23:55:47.964Z,76.43
